sensor_id;sensor_type;location;lat;lon;timestamp;pressure;altitude;pressure_sealevel;temperature;humidity
55801;BME280;41730;51.960;20.158;2023-07-20T00:00:13;99394.95;;;20.26;51.19
55801;BME280;41730;51.960;20.158;2023-07-20T00:02:43;99392.80;;;20.18;51.22
55801;BME280;41730;51.960;20.158;2023-07-20T00:05:12;99393.27;;;20.12;51.32
55801;BME280;41730;51.960;20.158;2023-07-20T00:07:41;99392.92;;;20.17;51.26
55801;BME280;41730;51.960;20.158;2023-07-20T00:10:10;99397.13;;;20.11;51.58
55801;BME280;41730;51.960;20.158;2023-07-20T00:12:39;99394.13;;;20.08;51.87
55801;BME280;41730;51.960;20.158;2023-07-20T00:15:09;99392.42;;;19.96;52.01
55801;BME280;41730;51.960;20.158;2023-07-20T00:17:38;99398.58;;;19.85;52.26
55801;BME280;41730;51.960;20.158;2023-07-20T00:20:10;99402.61;;;19.92;52.25
55801;BME280;41730;51.960;20.158;2023-07-20T00:22:39;99403.45;;;19.87;52.08
55801;BME280;41730;51.960;20.158;2023-07-20T00:25:10;99402.02;;;19.82;52.23
55801;BME280;41730;51.960;20.158;2023-07-20T00:27:39;99403.67;;;19.81;52.26
55801;BME280;41730;51.960;20.158;2023-07-20T00:30:10;99405.50;;;19.90;52.01
55801;BME280;41730;51.960;20.158;2023-07-20T00:32:41;99411.19;;;19.98;51.62
55801;BME280;41730;51.960;20.158;2023-07-20T00:35:11;99414.55;;;20.00;51.51
55801;BME280;41730;51.960;20.158;2023-07-20T00:37:41;99413.56;;;20.00;51.63
55801;BME280;41730;51.960;20.158;2023-07-20T00:40:11;99402.31;;;19.99;51.66
55801;BME280;41730;51.960;20.158;2023-07-20T00:42:40;99394.73;;;19.93;51.82
55801;BME280;41730;51.960;20.158;2023-07-20T00:45:10;99386.60;;;19.76;52.15
55801;BME280;41730;51.960;20.158;2023-07-20T00:47:40;99384.98;;;19.64;52.54
55801;BME280;41730;51.960;20.158;2023-07-20T00:50:10;99386.81;;;19.67;52.47
55801;BME280;41730;51.960;20.158;2023-07-20T00:52:39;99387.15;;;19.74;52.35
55801;BME280;41730;51.960;20.158;2023-07-20T00:55:10;99389.89;;;19.90;52.02
55801;BME280;41730;51.960;20.158;2023-07-20T00:57:39;99395.10;;;19.96;51.82
55801;BME280;41730;51.960;20.158;2023-07-20T01:00:10;99391.29;;;19.91;51.85
55801;BME280;41730;51.960;20.158;2023-07-20T01:02:39;99392.04;;;19.87;51.97
55801;BME280;41730;51.960;20.158;2023-07-20T01:05:08;99389.87;;;20.03;51.68
55801;BME280;41730;51.960;20.158;2023-07-20T01:07:42;99392.76;;;20.17;51.31
55801;BME280;41730;51.960;20.158;2023-07-20T01:10:20;99396.27;;;20.22;51.09
55801;BME280;41730;51.960;20.158;2023-07-20T01:12:52;99400.13;;;20.10;51.36
55801;BME280;41730;51.960;20.158;2023-07-20T01:15:23;99402.03;;;19.97;51.71
55801;BME280;41730;51.960;20.158;2023-07-20T01:17:53;99400.28;;;19.85;51.92
55801;BME280;41730;51.960;20.158;2023-07-20T01:20:22;99400.02;;;19.63;52.49
55801;BME280;41730;51.960;20.158;2023-07-20T01:26:07;99407.20;;;19.45;52.95
55801;BME280;41730;51.960;20.158;2023-07-20T01:28:48;99402.28;;;19.50;52.93
55801;BME280;41730;51.960;20.158;2023-07-20T01:31:25;99397.89;;;19.63;52.52
55801;BME280;41730;51.960;20.158;2023-07-20T01:33:57;99395.09;;;19.66;52.63
55801;BME280;41730;51.960;20.158;2023-07-20T01:36:29;99387.89;;;19.67;52.69
55801;BME280;41730;51.960;20.158;2023-07-20T01:38:59;99383.61;;;19.61;52.84
55801;BME280;41730;51.960;20.158;2023-07-20T01:41:28;99384.88;;;19.59;52.98
55801;BME280;41730;51.960;20.158;2023-07-20T01:43:59;99384.27;;;19.68;52.80
55801;BME280;41730;51.960;20.158;2023-07-20T01:46:28;99382.16;;;19.59;53.00
55801;BME280;41730;51.960;20.158;2023-07-20T01:48:57;99384.30;;;19.50;53.21
55801;BME280;41730;51.960;20.158;2023-07-20T01:51:26;99389.44;;;19.32;53.77
55801;BME280;41730;51.960;20.158;2023-07-20T01:53:55;99387.55;;;19.46;53.60
55801;BME280;41730;51.960;20.158;2023-07-20T01:56:24;99390.52;;;19.54;53.24
55801;BME280;41730;51.960;20.158;2023-07-20T01:58:54;99395.34;;;19.42;53.60
55801;BME280;41730;51.960;20.158;2023-07-20T02:01:23;99397.64;;;19.42;53.69
55801;BME280;41730;51.960;20.158;2023-07-20T02:03:52;99409.63;;;19.47;53.68
55801;BME280;41730;51.960;20.158;2023-07-20T02:06:22;99414.93;;;19.63;53.29
55801;BME280;41730;51.960;20.158;2023-07-20T02:08:51;99418.21;;;19.63;53.26
55801;BME280;41730;51.960;20.158;2023-07-20T02:11:21;99416.27;;;19.49;53.70
55801;BME280;41730;51.960;20.158;2023-07-20T02:13:50;99418.77;;;19.50;53.79
55801;BME280;41730;51.960;20.158;2023-07-20T02:16:20;99421.02;;;19.43;53.87
55801;BME280;41730;51.960;20.158;2023-07-20T02:18:50;99425.70;;;19.35;54.14
55801;BME280;41730;51.960;20.158;2023-07-20T02:21:19;99426.05;;;19.31;54.31
55801;BME280;41730;51.960;20.158;2023-07-20T02:23:48;99422.22;;;19.20;54.50
55801;BME280;41730;51.960;20.158;2023-07-20T02:26:17;99414.61;;;19.10;54.91
55801;BME280;41730;51.960;20.158;2023-07-20T02:28:46;99420.14;;;19.24;54.64
55801;BME280;41730;51.960;20.158;2023-07-20T02:31:15;99416.13;;;19.37;54.33
55801;BME280;41730;51.960;20.158;2023-07-20T02:33:45;99419.45;;;19.38;54.16
55801;BME280;41730;51.960;20.158;2023-07-20T02:36:14;99414.36;;;19.29;54.46
55801;BME280;41730;51.960;20.158;2023-07-20T02:38:44;99410.76;;;19.40;54.41
55801;BME280;41730;51.960;20.158;2023-07-20T02:41:14;99412.12;;;19.46;54.18
55801;BME280;41730;51.960;20.158;2023-07-20T02:43:42;99411.99;;;19.44;54.24
55801;BME280;41730;51.960;20.158;2023-07-20T02:46:12;99414.23;;;19.45;54.22
55801;BME280;41730;51.960;20.158;2023-07-20T02:48:41;99413.67;;;19.45;54.34
55801;BME280;41730;51.960;20.158;2023-07-20T02:51:10;99413.98;;;19.22;54.97
55801;BME280;41730;51.960;20.158;2023-07-20T02:53:39;99416.55;;;19.31;54.81
55801;BME280;41730;51.960;20.158;2023-07-20T02:56:08;99415.24;;;19.38;54.60
55801;BME280;41730;51.960;20.158;2023-07-20T02:58:39;99418.16;;;19.24;54.91
55801;BME280;41730;51.960;20.158;2023-07-20T03:01:11;99424.75;;;19.17;55.08
55801;BME280;41730;51.960;20.158;2023-07-20T03:03:40;99427.64;;;19.03;55.57
55801;BME280;41730;51.960;20.158;2023-07-20T03:06:10;99438.38;;;19.11;55.50
55801;BME280;41730;51.960;20.158;2023-07-20T03:08:39;99453.64;;;19.10;55.63
55801;BME280;41730;51.960;20.158;2023-07-20T03:11:09;99465.81;;;19.08;55.83
55801;BME280;41730;51.960;20.158;2023-07-20T03:13:38;99470.92;;;19.03;56.18
55801;BME280;41730;51.960;20.158;2023-07-20T03:16:07;99479.27;;;18.85;57.05
55801;BME280;41730;51.960;20.158;2023-07-20T03:18:39;99491.51;;;18.64;58.17
55801;BME280;41730;51.960;20.158;2023-07-20T03:21:09;99497.55;;;18.39;59.23
55801;BME280;41730;51.960;20.158;2023-07-20T03:23:39;99504.42;;;18.17;60.33
55801;BME280;41730;51.960;20.158;2023-07-20T03:26:43;99506.81;;;17.92;61.55
55801;BME280;41730;51.960;20.158;2023-07-20T03:29:34;99511.53;;;17.81;62.11
55801;BME280;41730;51.960;20.158;2023-07-20T03:32:02;99523.78;;;17.95;61.90
55801;BME280;41730;51.960;20.158;2023-07-20T03:34:31;99526.65;;;17.91;61.35
55801;BME280;41730;51.960;20.158;2023-07-20T03:37:00;99515.73;;;17.74;62.77
55801;BME280;41730;51.960;20.158;2023-07-20T03:39:34;99518.36;;;17.61;63.71
55801;BME280;41730;51.960;20.158;2023-07-20T03:42:03;99526.33;;;17.73;63.81
55801;BME280;41730;51.960;20.158;2023-07-20T03:44:34;99524.77;;;17.68;64.14
55801;BME280;41730;51.960;20.158;2023-07-20T03:47:04;99525.22;;;17.68;64.54
55801;BME280;41730;51.960;20.158;2023-07-20T03:49:33;99532.10;;;17.83;64.33
55801;BME280;41730;51.960;20.158;2023-07-20T03:52:02;99535.61;;;17.73;65.06
55801;BME280;41730;51.960;20.158;2023-07-20T03:54:32;99540.80;;;17.72;65.18
55801;BME280;41730;51.960;20.158;2023-07-20T03:57:00;99535.89;;;17.72;65.67
55801;BME280;41730;51.960;20.158;2023-07-20T03:59:29;99534.14;;;17.83;65.36
55801;BME280;41730;51.960;20.158;2023-07-20T04:01:58;99536.92;;;17.82;65.74
55801;BME280;41730;51.960;20.158;2023-07-20T04:04:29;99536.94;;;17.85;65.85
55801;BME280;41730;51.960;20.158;2023-07-20T04:06:58;99541.83;;;17.77;66.17
55801;BME280;41730;51.960;20.158;2023-07-20T04:09:28;99541.48;;;17.74;66.66
55801;BME280;41730;51.960;20.158;2023-07-20T04:11:57;99532.73;;;17.76;66.50
55801;BME280;41730;51.960;20.158;2023-07-20T04:14:27;99532.80;;;17.69;67.01
55801;BME280;41730;51.960;20.158;2023-07-20T04:16:56;99529.85;;;17.80;66.71
55801;BME280;41730;51.960;20.158;2023-07-20T04:19:25;99539.31;;;17.84;66.60
55801;BME280;41730;51.960;20.158;2023-07-20T04:21:55;99539.59;;;17.81;66.90
55801;BME280;41730;51.960;20.158;2023-07-20T04:24:24;99533.52;;;17.79;67.30
55801;BME280;41730;51.960;20.158;2023-07-20T04:26:53;99535.55;;;17.93;66.88
55801;BME280;41730;51.960;20.158;2023-07-20T04:29:23;99535.41;;;18.01;66.64
55801;BME280;41730;51.960;20.158;2023-07-20T04:31:52;99534.79;;;17.99;66.70
55801;BME280;41730;51.960;20.158;2023-07-20T04:34:22;99531.39;;;18.02;66.89
55801;BME280;41730;51.960;20.158;2023-07-20T04:36:51;99531.04;;;18.14;66.66
55801;BME280;41730;51.960;20.158;2023-07-20T04:39:22;99533.66;;;18.07;66.74
55801;BME280;41730;51.960;20.158;2023-07-20T04:41:59;99529.09;;;18.02;66.76
55801;BME280;41730;51.960;20.158;2023-07-20T04:44:29;99535.06;;;17.97;67.37
55801;BME280;41730;51.960;20.158;2023-07-20T04:46:58;99528.96;;;18.02;67.23
55801;BME280;41730;51.960;20.158;2023-07-20T04:49:28;99528.34;;;18.02;67.28
55801;BME280;41730;51.960;20.158;2023-07-20T04:51:57;99534.83;;;18.04;67.04
55801;BME280;41730;51.960;20.158;2023-07-20T04:54:27;99532.52;;;18.03;67.15
55801;BME280;41730;51.960;20.158;2023-07-20T04:56:56;99531.46;;;17.99;67.38
55801;BME280;41730;51.960;20.158;2023-07-20T04:59:25;99528.81;;;17.96;67.64
55801;BME280;41730;51.960;20.158;2023-07-20T05:01:54;99535.29;;;17.92;67.75
55801;BME280;41730;51.960;20.158;2023-07-20T05:04:25;99537.55;;;17.97;67.52
55801;BME280;41730;51.960;20.158;2023-07-20T05:06:57;99539.31;;;17.93;67.62
55801;BME280;41730;51.960;20.158;2023-07-20T05:09:26;99538.05;;;18.06;67.34
55801;BME280;41730;51.960;20.158;2023-07-20T05:11:55;99536.98;;;17.97;67.64
55801;BME280;41730;51.960;20.158;2023-07-20T05:14:24;99536.11;;;18.01;67.52
55801;BME280;41730;51.960;20.158;2023-07-20T05:16:53;99539.02;;;18.01;67.44
55801;BME280;41730;51.960;20.158;2023-07-20T05:19:23;99536.88;;;18.01;67.48
55801;BME280;41730;51.960;20.158;2023-07-20T05:21:53;99530.13;;;18.01;67.55
55801;BME280;41730;51.960;20.158;2023-07-20T05:24:22;99526.97;;;18.19;66.92
55801;BME280;41730;51.960;20.158;2023-07-20T05:26:52;99525.41;;;18.20;66.79
55801;BME280;41730;51.960;20.158;2023-07-20T05:29:21;99523.93;;;18.13;67.17
55801;BME280;41730;51.960;20.158;2023-07-20T05:31:50;99523.45;;;18.05;67.57
55801;BME280;41730;51.960;20.158;2023-07-20T05:34:19;99518.23;;;18.07;67.45
55801;BME280;41730;51.960;20.158;2023-07-20T05:36:49;99513.60;;;18.07;67.40
55801;BME280;41730;51.960;20.158;2023-07-20T05:39:21;99516.49;;;18.15;67.26
55801;BME280;41730;51.960;20.158;2023-07-20T05:41:50;99522.40;;;18.16;67.21
55801;BME280;41730;51.960;20.158;2023-07-20T05:44:19;99521.20;;;18.10;67.65
55801;BME280;41730;51.960;20.158;2023-07-20T05:46:49;99520.97;;;18.02;67.97
55801;BME280;41730;51.960;20.158;2023-07-20T05:49:26;99520.67;;;18.16;67.70
55801;BME280;41730;51.960;20.158;2023-07-20T05:51:56;99523.57;;;18.31;67.47
55801;BME280;41730;51.960;20.158;2023-07-20T05:54:27;99524.98;;;18.53;66.80
55801;BME280;41730;51.960;20.158;2023-07-20T05:56:58;99521.93;;;18.70;66.27
55801;BME280;41730;51.960;20.158;2023-07-20T05:59:28;99523.20;;;18.84;65.89
55801;BME280;41730;51.960;20.158;2023-07-20T06:01:58;99520.70;;;18.94;65.56
55801;BME280;41730;51.960;20.158;2023-07-20T06:04:27;99519.30;;;19.05;65.34
55801;BME280;41730;51.960;20.158;2023-07-20T06:06:56;99516.61;;;19.10;64.87
55801;BME280;41730;51.960;20.158;2023-07-20T06:09:25;99509.55;;;18.99;65.24
55801;BME280;41730;51.960;20.158;2023-07-20T06:11:55;99513.76;;;19.11;64.88
55801;BME280;41730;51.960;20.158;2023-07-20T06:14:25;99515.48;;;19.00;65.03
55801;BME280;41730;51.960;20.158;2023-07-20T06:16:54;99519.95;;;19.10;65.01
55801;BME280;41730;51.960;20.158;2023-07-20T06:19:24;99514.73;;;19.21;64.78
55801;BME280;41730;51.960;20.158;2023-07-20T06:21:54;99513.35;;;19.26;64.83
55801;BME280;41730;51.960;20.158;2023-07-20T06:24:23;99510.35;;;19.23;64.71
55801;BME280;41730;51.960;20.158;2023-07-20T06:26:52;99510.19;;;19.13;65.06
55801;BME280;41730;51.960;20.158;2023-07-20T06:29:22;99509.29;;;19.12;65.03
55801;BME280;41730;51.960;20.158;2023-07-20T06:31:51;99509.17;;;19.00;65.27
55801;BME280;41730;51.960;20.158;2023-07-20T06:34:21;99515.40;;;18.94;65.37
55801;BME280;41730;51.960;20.158;2023-07-20T06:36:52;99519.26;;;19.04;65.24
55801;BME280;41730;51.960;20.158;2023-07-20T06:39:21;99517.44;;;19.00;65.46
55801;BME280;41730;51.960;20.158;2023-07-20T06:41:54;99515.19;;;19.13;65.21
55801;BME280;41730;51.960;20.158;2023-07-20T06:44:23;99517.84;;;19.31;64.77
55801;BME280;41730;51.960;20.158;2023-07-20T06:46:55;99517.38;;;19.26;64.91
55801;BME280;41730;51.960;20.158;2023-07-20T06:49:28;99512.05;;;19.46;64.43
55801;BME280;41730;51.960;20.158;2023-07-20T06:51:57;99512.44;;;19.51;63.92
55801;BME280;41730;51.960;20.158;2023-07-20T06:54:27;99522.86;;;19.33;64.10
55801;BME280;41730;51.960;20.158;2023-07-20T06:56:57;99527.43;;;19.28;64.03
55801;BME280;41730;51.960;20.158;2023-07-20T07:00:06;99530.14;;;19.16;64.32
55801;BME280;41730;51.960;20.158;2023-07-20T07:02:38;99535.66;;;19.25;64.00
55801;BME280;41730;51.960;20.158;2023-07-20T07:05:09;99540.70;;;19.37;63.98
55801;BME280;41730;51.960;20.158;2023-07-20T07:07:41;99540.16;;;19.48;63.72
55801;BME280;41730;51.960;20.158;2023-07-20T07:10:12;99538.58;;;19.37;64.05
55801;BME280;41730;51.960;20.158;2023-07-20T07:12:42;99546.83;;;19.31;64.23
55801;BME280;41730;51.960;20.158;2023-07-20T07:15:12;99559.64;;;19.46;63.84
55801;BME280;41730;51.960;20.158;2023-07-20T07:17:41;99561.88;;;19.52;63.66
55801;BME280;41730;51.960;20.158;2023-07-20T07:20:13;99561.82;;;19.46;63.92
55801;BME280;41730;51.960;20.158;2023-07-20T07:22:49;99561.32;;;19.43;64.01
55801;BME280;41730;51.960;20.158;2023-07-20T07:25:26;99559.27;;;19.36;64.09
55801;BME280;41730;51.960;20.158;2023-07-20T07:27:57;99556.31;;;19.43;63.98
55801;BME280;41730;51.960;20.158;2023-07-20T07:30:29;99561.75;;;19.53;63.83
55801;BME280;41730;51.960;20.158;2023-07-20T07:33:01;99561.14;;;19.52;63.79
55801;BME280;41730;51.960;20.158;2023-07-20T07:35:30;99566.62;;;19.58;63.78
55801;BME280;41730;51.960;20.158;2023-07-20T07:37:59;99569.34;;;19.52;63.88
55801;BME280;41730;51.960;20.158;2023-07-20T07:40:41;99575.26;;;19.65;63.53
55801;BME280;41730;51.960;20.158;2023-07-20T07:43:39;99571.52;;;19.69;63.38
55801;BME280;41730;51.960;20.158;2023-07-20T07:46:08;99574.12;;;19.67;63.32
55801;BME280;41730;51.960;20.158;2023-07-20T07:48:37;99579.11;;;19.63;63.48
55801;BME280;41730;51.960;20.158;2023-07-20T07:51:06;99578.17;;;19.59;63.56
55801;BME280;41730;51.960;20.158;2023-07-20T07:53:35;99576.27;;;19.63;63.47
55801;BME280;41730;51.960;20.158;2023-07-20T07:56:07;99582.76;;;19.65;63.55
55801;BME280;41730;51.960;20.158;2023-07-20T07:58:37;99587.77;;;19.71;63.34
55801;BME280;41730;51.960;20.158;2023-07-20T08:01:06;99593.73;;;19.76;63.16
55801;BME280;41730;51.960;20.158;2023-07-20T08:03:37;99597.33;;;19.71;63.40
55801;BME280;41730;51.960;20.158;2023-07-20T08:06:09;99603.14;;;19.81;63.16
55801;BME280;41730;51.960;20.158;2023-07-20T08:08:42;99608.66;;;19.72;63.48
55801;BME280;41730;51.960;20.158;2023-07-20T08:11:11;99615.70;;;19.80;63.42
55801;BME280;41730;51.960;20.158;2023-07-20T08:13:43;99616.80;;;19.82;63.50
55801;BME280;41730;51.960;20.158;2023-07-20T08:16:12;99618.46;;;19.85;63.53
55801;BME280;41730;51.960;20.158;2023-07-20T08:18:43;99622.15;;;19.81;63.83
55801;BME280;41730;51.960;20.158;2023-07-20T08:21:12;99625.58;;;19.89;63.71
55801;BME280;41730;51.960;20.158;2023-07-20T08:23:41;99631.74;;;19.71;64.15
55801;BME280;41730;51.960;20.158;2023-07-20T08:26:11;99631.73;;;19.59;64.81
55801;BME280;41730;51.960;20.158;2023-07-20T08:28:40;99630.64;;;19.63;64.77
55801;BME280;41730;51.960;20.158;2023-07-20T08:31:09;99631.09;;;19.70;64.69
55801;BME280;41730;51.960;20.158;2023-07-20T08:33:38;99629.69;;;19.77;64.64
55801;BME280;41730;51.960;20.158;2023-07-20T08:36:07;99623.81;;;19.79;64.61
55801;BME280;41730;51.960;20.158;2023-07-20T08:38:39;99622.63;;;19.78;64.99
55801;BME280;41730;51.960;20.158;2023-07-20T08:44:21;99619.25;;;20.20;64.52
55801;BME280;41730;51.960;20.158;2023-07-20T08:46:52;99615.04;;;20.51;63.80
55801;BME280;41730;51.960;20.158;2023-07-20T08:49:23;99619.91;;;20.62;63.50
55801;BME280;41730;51.960;20.158;2023-07-20T08:51:53;99625.39;;;20.77;62.93
55801;BME280;41730;51.960;20.158;2023-07-20T08:54:22;99625.48;;;21.07;61.85
55801;BME280;41730;51.960;20.158;2023-07-20T08:56:52;99623.05;;;21.19;61.48
55801;BME280;41730;51.960;20.158;2023-07-20T08:59:24;99622.91;;;21.24;61.45
55801;BME280;41730;51.960;20.158;2023-07-20T09:01:54;99621.02;;;21.50;61.10
55801;BME280;41730;51.960;20.158;2023-07-20T09:04:24;99616.98;;;21.79;60.43
55801;BME280;41730;51.960;20.158;2023-07-20T09:06:53;99612.98;;;21.98;60.09
55801;BME280;41730;51.960;20.158;2023-07-20T09:09:23;99610.83;;;22.01;59.90
55801;BME280;41730;51.960;20.158;2023-07-20T09:11:52;99606.61;;;22.09;59.67
55801;BME280;41730;51.960;20.158;2023-07-20T09:14:24;99605.55;;;22.13;59.57
55801;BME280;41730;51.960;20.158;2023-07-20T09:16:55;99606.92;;;22.20;59.50
55801;BME280;41730;51.960;20.158;2023-07-20T09:19:25;99614.65;;;22.45;58.66
55801;BME280;41730;51.960;20.158;2023-07-20T09:21:54;99611.50;;;22.43;58.00
55801;BME280;41730;51.960;20.158;2023-07-20T09:24:24;99612.86;;;22.47;57.55
55801;BME280;41730;51.960;20.158;2023-07-20T09:26:53;99608.14;;;22.41;56.86
55801;BME280;41730;51.960;20.158;2023-07-20T09:29:23;99606.38;;;22.34;56.96
55801;BME280;41730;51.960;20.158;2023-07-20T09:32:02;99599.85;;;22.32;57.34
55801;BME280;41730;51.960;20.158;2023-07-20T09:34:32;99602.29;;;22.35;57.28
55801;BME280;41730;51.960;20.158;2023-07-20T09:37:05;99604.39;;;22.22;57.31
55801;BME280;41730;51.960;20.158;2023-07-20T09:39:43;99600.46;;;22.20;57.36
55801;BME280;41730;51.960;20.158;2023-07-20T09:42:32;99596.55;;;22.30;57.23
55801;BME280;41730;51.960;20.158;2023-07-20T09:45:04;99595.98;;;22.51;56.92
55801;BME280;41730;51.960;20.158;2023-07-20T09:47:37;99592.16;;;22.62;56.56
55801;BME280;41730;51.960;20.158;2023-07-20T09:50:08;99593.23;;;22.71;56.24
55801;BME280;41730;51.960;20.158;2023-07-20T09:52:42;99593.11;;;22.87;56.11
55801;BME280;41730;51.960;20.158;2023-07-20T09:55:15;99595.45;;;23.16;55.60
55801;BME280;41730;51.960;20.158;2023-07-20T09:57:46;99597.57;;;23.26;54.77
55801;BME280;41730;51.960;20.158;2023-07-20T10:00:17;99600.92;;;23.18;54.38
55801;BME280;41730;51.960;20.158;2023-07-20T10:02:50;99604.02;;;22.98;53.99
55801;BME280;41730;51.960;20.158;2023-07-20T10:05:21;99607.16;;;22.67;54.42
55801;BME280;41730;51.960;20.158;2023-07-20T10:07:53;99606.23;;;22.56;55.03
55801;BME280;41730;51.960;20.158;2023-07-20T10:10:43;99602.41;;;22.59;55.18
55801;BME280;41730;51.960;20.158;2023-07-20T10:13:17;99605.11;;;22.70;55.01
55801;BME280;41730;51.960;20.158;2023-07-20T10:15:50;99602.55;;;22.70;54.96
55801;BME280;41730;51.960;20.158;2023-07-20T10:18:24;99608.52;;;22.76;54.72
55801;BME280;41730;51.960;20.158;2023-07-20T10:20:58;99615.26;;;22.78;54.65
55801;BME280;41730;51.960;20.158;2023-07-20T10:23:31;99610.46;;;22.66;54.93
55801;BME280;41730;51.960;20.158;2023-07-20T10:26:01;99604.63;;;22.76;54.73
55801;BME280;41730;51.960;20.158;2023-07-20T10:28:31;99607.70;;;22.87;54.39
55801;BME280;41730;51.960;20.158;2023-07-20T10:31:04;99608.46;;;22.94;54.19
55801;BME280;41730;51.960;20.158;2023-07-20T10:33:35;99601.20;;;22.91;54.33
55801;BME280;41730;51.960;20.158;2023-07-20T10:36:06;99602.05;;;23.03;54.12
55801;BME280;41730;51.960;20.158;2023-07-20T10:38:42;99600.55;;;22.98;54.22
55801;BME280;41730;51.960;20.158;2023-07-20T10:41:19;99603.39;;;22.91;54.39
55801;BME280;41730;51.960;20.158;2023-07-20T10:43:50;99610.92;;;22.83;54.42
55801;BME280;41730;51.960;20.158;2023-07-20T10:49:19;99609.86;;;22.51;55.49
55801;BME280;41730;51.960;20.158;2023-07-20T10:51:59;99609.19;;;22.13;57.18
55801;BME280;41730;51.960;20.158;2023-07-20T10:54:49;99600.21;;;21.60;59.88
55801;BME280;41730;51.960;20.158;2023-07-20T10:57:31;99614.33;;;21.02;62.57
55801;BME280;41730;51.960;20.158;2023-07-20T11:00:15;99605.07;;;20.53;64.49
55801;BME280;41730;51.960;20.158;2023-07-20T11:02:48;99609.92;;;20.19;65.88
55801;BME280;41730;51.960;20.158;2023-07-20T11:05:39;99617.92;;;20.07;66.93
55801;BME280;41730;51.960;20.158;2023-07-20T11:08:12;99624.20;;;19.96;67.73
55801;BME280;41730;51.960;20.158;2023-07-20T11:10:41;99627.11;;;19.71;69.01
55801;BME280;41730;51.960;20.158;2023-07-20T11:13:21;99624.55;;;19.50;69.56
55801;BME280;41730;51.960;20.158;2023-07-20T11:16:03;99613.35;;;19.40;69.57
55801;BME280;41730;51.960;20.158;2023-07-20T11:18:35;99600.42;;;19.37;69.34
55801;BME280;41730;51.960;20.158;2023-07-20T11:21:10;99591.25;;;19.32;69.43
55801;BME280;41730;51.960;20.158;2023-07-20T11:23:40;99587.02;;;19.28;69.67
55801;BME280;41730;51.960;20.158;2023-07-20T11:26:09;99597.09;;;19.34;69.64
55801;BME280;41730;51.960;20.158;2023-07-20T11:28:39;99602.50;;;19.33;69.77
55801;BME280;41730;51.960;20.158;2023-07-20T11:31:08;99593.02;;;19.21;70.68
55801;BME280;41730;51.960;20.158;2023-07-20T11:33:38;99590.86;;;19.24;71.06
55801;BME280;41730;51.960;20.158;2023-07-20T11:36:09;99596.35;;;19.23;71.40
55801;BME280;41730;51.960;20.158;2023-07-20T11:38:42;99599.27;;;19.28;71.35
55801;BME280;41730;51.960;20.158;2023-07-20T11:41:12;99602.55;;;19.34;71.33
55801;BME280;41730;51.960;20.158;2023-07-20T11:43:41;99607.95;;;19.41;71.27
55801;BME280;41730;51.960;20.158;2023-07-20T11:46:12;99606.90;;;19.44;71.38
55801;BME280;41730;51.960;20.158;2023-07-20T11:48:41;99605.90;;;19.42;71.56
55801;BME280;41730;51.960;20.158;2023-07-20T11:51:16;99608.95;;;19.30;72.05
55801;BME280;41730;51.960;20.158;2023-07-20T11:53:46;99616.94;;;19.23;72.31
55801;BME280;41730;51.960;20.158;2023-07-20T11:56:15;99616.78;;;19.25;72.42
55801;BME280;41730;51.960;20.158;2023-07-20T11:58:45;99617.98;;;19.12;72.78
55801;BME280;41730;51.960;20.158;2023-07-20T12:01:15;99623.55;;;19.04;73.36
55801;BME280;41730;51.960;20.158;2023-07-20T12:03:44;99616.21;;;19.11;73.17
55801;BME280;41730;51.960;20.158;2023-07-20T12:06:14;99610.20;;;19.31;72.75
55801;BME280;41730;51.960;20.158;2023-07-20T12:08:44;99605.88;;;19.48;72.09
55801;BME280;41730;51.960;20.158;2023-07-20T12:11:13;99603.90;;;19.45;72.13
55801;BME280;41730;51.960;20.158;2023-07-20T12:13:46;99599.31;;;19.47;72.04
55801;BME280;41730;51.960;20.158;2023-07-20T12:16:16;99605.23;;;19.48;72.32
55801;BME280;41730;51.960;20.158;2023-07-20T12:18:47;99608.88;;;19.58;72.24
55801;BME280;41730;51.960;20.158;2023-07-20T12:21:16;99605.52;;;19.62;72.30
55801;BME280;41730;51.960;20.158;2023-07-20T12:23:47;99605.67;;;19.61;72.55
55801;BME280;41730;51.960;20.158;2023-07-20T12:26:17;99608.17;;;19.61;72.89
55801;BME280;41730;51.960;20.158;2023-07-20T12:28:46;99601.13;;;19.77;72.53
55801;BME280;41730;51.960;20.158;2023-07-20T12:31:15;99598.76;;;19.80;72.51
55801;BME280;41730;51.960;20.158;2023-07-20T12:33:44;99603.73;;;19.86;72.43
55801;BME280;41730;51.960;20.158;2023-07-20T12:36:13;99602.02;;;19.98;72.31
55801;BME280;41730;51.960;20.158;2023-07-20T12:38:43;99606.35;;;20.06;72.21
55801;BME280;41730;51.960;20.158;2023-07-20T12:41:13;99605.63;;;20.14;72.23
55801;BME280;41730;51.960;20.158;2023-07-20T12:43:43;99601.36;;;20.24;72.22
55801;BME280;41730;51.960;20.158;2023-07-20T12:46:13;99599.10;;;20.29;72.34
55801;BME280;41730;51.960;20.158;2023-07-20T12:48:42;99598.14;;;20.26;72.54
55801;BME280;41730;51.960;20.158;2023-07-20T12:51:25;99592.92;;;20.26;72.81
55801;BME280;41730;51.960;20.158;2023-07-20T12:54:16;99594.54;;;20.25;72.79
55801;BME280;41730;51.960;20.158;2023-07-20T12:57:02;99599.64;;;20.39;72.64
55801;BME280;41730;51.960;20.158;2023-07-20T12:59:39;99596.71;;;20.41;72.61
55801;BME280;41730;51.960;20.158;2023-07-20T13:02:09;99599.06;;;20.53;72.66
55801;BME280;41730;51.960;20.158;2023-07-20T13:04:41;99594.49;;;20.70;72.53
55801;BME280;41730;51.960;20.158;2023-07-20T13:07:30;99585.70;;;20.92;72.03
55801;BME280;41730;51.960;20.158;2023-07-20T13:10:13;99588.40;;;21.24;71.19
55801;BME280;41730;51.960;20.158;2023-07-20T13:12:42;99586.84;;;21.47;70.12
55801;BME280;41730;51.960;20.158;2023-07-20T13:15:14;99586.02;;;21.48;70.03
55801;BME280;41730;51.960;20.158;2023-07-20T13:17:44;99581.10;;;21.52;69.96
55801;BME280;41730;51.960;20.158;2023-07-20T13:20:15;99584.45;;;21.57;69.75